Mabton, WA

10:04 AM PDT on August 20, 2014 (GMT -0700)
Mabton 2 SE | Change Station
CLOSE
Current Station
Personal Weather Station
Location: Mabton, WA
Elevation: 725 ft
Nearby Weather Stations

Elev 725 ft 46.20 °N, 119.96 °W | Updated 4 minutes ago

Clear
Clear
69.8 °F
Feels Like 69.8 °F
N
0.0
Wind Variable Wind from ESE
Gusts 0.0 mph

Today
High -- | Low -- °F
--% Chance of Precip.
Yesterday
High -- | Low -- °F
Precip. -- in
6:05 AM 8:00 PM
Waning Crescent, 20% visible
Pressure 29.80 in
Visibility 10.0 miles
Clouds Clear
Dew Point 59 °F
Humidity 69%
Rainfall 0.00 in
Snow Depth Not available.
UV 5 out of 12
Pollen 4.20 out of 12
Air Quality Not available.
Flu Activity Not available.
METAR KYKM 201653Z 32006KT 10SM CLR 24/09 A2982 RMK AO2 SLP089 T02440094

More Conditions Fewer Conditions

Pressure 29.80 in
Visibility 10.0 miles
Clouds Clear
Dew Point 59 °F
Humidity 69%
Rainfall 0.00 in
Snow Depth Not available.
UV 5 out of 12
Pollen 4.20 out of 12
Air Quality Not available.
Flu Activity Not available.
METAR KYKM 201653Z 32006KT 10SM CLR 24/09 A2982 RMK AO2 SLP089 T02440094

More Conditions Fewer Conditions

10-Day Weather Forecast

Almanac

Astronomy

Aug. 20, 2014 Rise Set
Actual Time 6:05 AM PDT 8:00 PM PDT
Civil Twilight 5:33 AM PDT 8:32 PM PDT
Nautical Twilight 4:53 AM PDT 9:11 PM PDT
Astronomical Twilight 4:10 AM PDT 9:55 PM PDT
Moon 1:43 AM PDT 4:55 PM PDT
Length of Visible Light 14h 59m
Length of Day
13h 54m
Tomorrow will be 3m 1s shorter.
Waning Crescent, 20% of the Moon is Illuminated
Today
Waning Crescent
Aug 25
New
Sep 2
First Quarter
Sep 8
Full
Sep 15
Last Quarter

Today's Extremes

State Highs State Lows

Community

WunderPhotos

Upload Photos

1,745,694 photos uploaded!

WunderBlogs® & News

By Dr. Jeff Masters
Director of Meteorology, Weather Underground
By Kari Strenfel
Meteorologist, Weather Underground
By Christopher C. Burt
Weather Historian, Weather Underground
August 20, 2014
August 20, 2014
August 20, 2014

Nearby

Snow Depth

Station Depth Elevation
Lost Horse 0 in 5000 ft
Green Lake 0 in 6000 ft
Trough 0 in 5300 ft
White Pass E.S. 0 in 4500 ft
Potato Hill 0 in 4500 ft

Earthquake Activity

City Distance Mag. Time & Date
No recent earthquake activity has been reported nearby.
Minimum magnitude displayed is 2.5.

Coastal Water Temperatures

Place Temperature
No Stations Reporting

Nearby Weather Stations